createdAt,value
2022-10-28T00:00:49.384Z,6.65
2022-10-28T00:03:16.908Z,7.05
2022-10-28T00:05:44.414Z,6.68
2022-10-28T00:08:12.309Z,6.55
2022-10-28T00:10:39.801Z,6.80
2022-10-28T00:13:07.353Z,6.38
2022-10-28T00:15:36.584Z,7.15
2022-10-28T00:18:04.101Z,6.80
2022-10-28T00:20:32.615Z,6.55
2022-10-28T00:23:00.147Z,6.85
2022-10-28T00:25:27.581Z,6.97
2022-10-28T00:27:55.395Z,6.20
2022-10-28T00:30:23.126Z,6.78
2022-10-28T00:32:52.369Z,6.72
2022-10-28T00:35:19.980Z,6.88
2022-10-28T00:37:47.436Z,6.45
2022-10-28T00:40:14.993Z,6.43
2022-10-28T00:42:42.419Z,6.97
2022-10-28T00:45:10.487Z,6.43
2022-10-28T00:47:41.150Z,6.55
2022-10-28T00:50:19.493Z,6.97
2022-10-28T00:52:48.072Z,7.00
2022-10-28T00:55:17.166Z,6.07
2022-10-28T00:57:45.760Z,7.00
2022-10-28T01:00:13.798Z,6.82
2022-10-28T01:02:44.466Z,6.40
2022-10-28T01:05:12.748Z,6.68
2022-10-28T01:07:41.597Z,6.80
2022-10-28T01:10:10.116Z,7.50
2022-10-28T01:12:42.217Z,6.75
2022-10-28T01:15:13.852Z,6.95
2022-10-28T01:17:47.528Z,7.13
2022-10-28T01:20:36.212Z,6.97
2022-10-28T01:23:14.028Z,6.97
2022-10-28T01:26:05.514Z,7.72
2022-10-28T01:28:50.942Z,6.72
2022-10-28T01:31:24.622Z,5.95
2022-10-28T01:33:53.566Z,6.90
2022-10-28T01:36:24.916Z,7.22
2022-10-28T01:38:55.669Z,6.60
2022-10-28T01:41:29.465Z,6.47
2022-10-28T01:44:00.490Z,6.35
2022-10-28T01:46:30.366Z,7.20
2022-10-28T01:48:59.223Z,6.45
2022-10-28T01:51:28.198Z,7.03
2022-10-28T01:53:57.862Z,6.65
2022-10-28T01:56:26.996Z,6.18
2022-10-28T01:58:56.640Z,7.13
2022-10-28T02:01:24.979Z,6.38
2022-10-28T02:03:57.387Z,6.82
2022-10-28T02:06:26.354Z,7.18
2022-10-28T02:08:59.428Z,6.78
2022-10-28T02:11:32.022Z,6.80
2022-10-28T02:14:04.751Z,6.75
2022-10-28T02:16:37.437Z,7.03
2022-10-28T02:19:09.918Z,6.82
2022-10-28T02:21:42.599Z,6.25
2022-10-28T02:24:12.977Z,6.55
2022-10-28T02:26:43.269Z,7.03
2022-10-28T02:29:15.410Z,6.07
2022-10-28T02:31:46.003Z,6.82
2022-10-28T02:34:18.311Z,8.05
2022-10-28T02:36:48.694Z,6.40
2022-10-28T02:39:17.659Z,6.85
2022-10-28T02:41:47.209Z,7.22
2022-10-28T02:44:17.815Z,6.80
2022-10-28T02:46:47.622Z,7.13
2022-10-28T02:49:16.498Z,7.78
2022-10-28T02:51:45.707Z,10.23
2022-10-28T02:54:15.559Z,7.63
2022-10-28T02:56:45.525Z,7.22
2022-10-28T02:59:13.377Z,7.85
2022-10-28T03:01:41.030Z,8.00
2022-10-28T03:04:08.616Z,8.93
2022-10-28T03:06:37.515Z,7.43
2022-10-28T03:09:05.092Z,7.30
2022-10-28T03:11:32.582Z,7.47
2022-10-28T03:14:00.099Z,7.30
2022-10-28T03:16:27.661Z,10.10
2022-10-28T03:18:55.584Z,7.88
2022-10-28T03:21:23.129Z,8.93
2022-10-28T03:23:52.048Z,7.60
2022-10-28T03:26:19.515Z,6.93
2022-10-28T03:28:47.184Z,7.57
2022-10-28T03:31:15.254Z,7.88
2022-10-28T03:33:42.888Z,7.93
2022-10-28T03:36:10.501Z,8.18
2022-10-28T03:38:38.152Z,9.02
2022-10-28T03:41:06.987Z,9.23
2022-10-28T03:43:34.472Z,8.52
2022-10-28T03:46:01.987Z,8.30
2022-10-28T03:48:29.521Z,9.30
2022-10-28T03:50:57.350Z,9.65
2022-10-28T03:53:27.717Z,9.13
2022-10-28T03:55:58.576Z,8.70
2022-10-28T03:58:27.430Z,7.90
2022-10-28T04:00:55.325Z,8.80
2022-10-28T04:03:23.751Z,8.50
2022-10-28T04:05:51.425Z,9.82
2022-10-28T04:08:19.403Z,9.63
2022-10-28T04:10:47.594Z,9.23
2022-10-28T04:13:15.612Z,9.13
2022-10-28T04:15:44.567Z,10.07
2022-10-28T04:18:12.256Z,9.60
2022-10-28T04:20:40.115Z,10.25
2022-10-28T04:23:07.635Z,10.15
2022-10-28T04:25:35.223Z,10.65
2022-10-28T04:28:02.789Z,10.95
2022-10-28T04:30:30.290Z,10.13
2022-10-28T04:32:59.127Z,10.30
2022-10-28T04:35:26.923Z,11.45
2022-10-28T04:37:54.635Z,8.88
2022-10-28T04:40:22.362Z,9.60
2022-10-28T04:42:52.039Z,9.90
2022-10-28T04:45:19.870Z,9.82
2022-10-28T04:47:47.422Z,8.70
2022-10-28T04:50:18.052Z,8.77
2022-10-28T04:52:45.539Z,8.63
2022-10-28T04:55:13.112Z,8.85
2022-10-28T04:57:40.895Z,9.65
2022-10-28T05:00:10.232Z,8.57
2022-10-28T05:02:37.706Z,9.40
2022-10-28T05:05:05.646Z,9.20
2022-10-28T05:07:35.532Z,9.60
2022-10-28T05:10:03.057Z,9.93
2022-10-28T05:12:31.023Z,11.70
2022-10-28T05:14:58.591Z,10.82
2022-10-28T05:17:26.061Z,10.18
2022-10-28T05:19:53.634Z,10.88
2022-10-28T05:22:21.197Z,10.63
2022-10-28T05:24:50.112Z,10.70
2022-10-28T05:27:21.006Z,9.90
2022-10-28T05:29:48.464Z,9.02
2022-10-28T05:32:15.942Z,10.32
2022-10-28T05:34:43.431Z,10.63
2022-10-28T05:37:10.894Z,9.82
2022-10-28T05:39:38.412Z,9.32
2022-10-28T05:42:07.508Z,10.48
2022-10-28T05:44:35.048Z,10.10
2022-10-28T05:47:02.618Z,10.13
2022-10-28T08:59:29.696Z,6.78
2022-10-28T09:01:58.810Z,6.68
2022-10-28T09:04:29.166Z,5.35
2022-10-28T09:06:57.023Z,5.40
2022-10-28T09:09:24.610Z,5.47
2022-10-28T09:12:10.378Z,6.20
2022-10-28T09:14:45.356Z,4.82
2022-10-28T09:17:17.473Z,4.25
2022-10-28T09:19:48.190Z,4.80
2022-10-28T09:22:25.963Z,3.42
2022-10-28T09:24:55.008Z,3.67
2022-10-28T09:27:46.293Z,3.13
2022-10-28T09:30:37.761Z,2.50
2022-10-28T09:33:14.301Z,2.63
2022-10-28T09:35:46.145Z,2.45
2022-10-28T09:38:19.347Z,2.35
2022-10-28T09:40:50.361Z,2.53
2022-10-28T09:43:23.545Z,2.10
2022-10-28T09:45:55.070Z,1.90
2022-10-28T09:48:24.637Z,1.80
2022-10-28T09:50:54.131Z,2.33
2022-10-28T09:53:27.465Z,2.42
2022-10-28T09:55:56.264Z,3.10
2022-10-28T09:58:24.035Z,3.45
2022-10-28T10:00:53.031Z,2.72
2022-10-28T10:03:20.573Z,2.92
2022-10-28T10:05:49.315Z,2.45
2022-10-28T10:08:18.203Z,2.70
2022-10-28T10:10:49.052Z,2.58
2022-10-28T10:13:18.054Z,2.20
2022-10-28T10:15:46.609Z,2.00
2022-10-28T10:18:17.549Z,2.03
2022-10-28T10:20:50.450Z,2.10
2022-10-28T10:23:25.413Z,2.15
2022-10-28T10:25:56.902Z,2.63
2022-10-28T10:28:24.911Z,4.00
2022-10-28T10:30:53.829Z,2.47
2022-10-28T10:33:24.954Z,1.92
2022-10-28T10:36:00.078Z,2.40
2022-10-28T10:38:28.658Z,2.30
2022-10-28T10:40:56.247Z,2.40
2022-10-28T10:43:25.543Z,1.92
2022-10-28T10:45:53.934Z,1.98
2022-10-28T10:48:22.785Z,1.88
2022-10-28T10:50:50.898Z,2.30
2022-10-28T10:53:20.917Z,1.92
2022-10-28T10:55:53.185Z,1.95
2022-10-28T10:58:22.116Z,1.83
2022-10-28T11:00:53.358Z,1.92
2022-10-28T11:03:25.703Z,1.58
2022-10-28T11:06:05.434Z,1.70
2022-10-28T11:08:44.022Z,1.70
2022-10-28T11:11:15.522Z,1.80
2022-10-28T11:13:46.174Z,2.40
2022-10-28T11:16:22.192Z,1.77
2022-10-28T11:18:52.482Z,2.03
2022-10-28T11:21:37.444Z,1.83
2022-10-28T11:24:11.278Z,1.83
2022-10-28T11:26:42.362Z,1.70
2022-10-28T11:29:11.030Z,2.05
2022-10-28T11:31:46.205Z,1.70
2022-10-28T11:34:35.361Z,1.95
2022-10-28T11:37:09.718Z,1.60
2022-10-28T11:39:43.357Z,1.80
2022-10-28T11:42:17.899Z,1.70
2022-10-28T11:44:47.669Z,1.60
2022-10-28T11:47:23.389Z,1.45
2022-10-28T11:50:06.704Z,1.67
2022-10-28T11:52:45.269Z,1.55
2022-10-28T11:55:19.142Z,2.75
2022-10-28T11:57:55.536Z,1.70
2022-10-28T12:00:28.539Z,1.52
2022-10-28T12:03:02.385Z,1.55
2022-10-28T12:08:06.119Z,1.70
2022-10-28T12:10:39.707Z,1.50
2022-10-28T12:13:11.099Z,1.50
2022-10-28T12:15:44.718Z,2.00
2022-10-28T12:18:22.957Z,1.95
2022-10-28T12:21:45.573Z,1.90
2022-10-28T12:24:18.488Z,2.40
2022-10-28T12:26:47.567Z,2.22
2022-10-28T12:29:33.364Z,2.45
2022-10-28T12:32:03.952Z,2.17
2022-10-28T12:37:09.076Z,2.10
2022-10-28T12:39:40.595Z,2.05
2022-10-28T12:42:13.335Z,2.28
2022-10-28T12:44:41.456Z,2.15
2022-10-28T12:47:15.695Z,2.47
2022-10-28T12:52:16.480Z,2.17
2022-10-28T12:55:00.823Z,2.08
2022-10-28T12:57:30.027Z,2.30
2022-10-28T13:00:00.191Z,2.10
2022-10-28T13:02:32.048Z,2.03
2022-10-28T13:04:59.909Z,2.17
2022-10-28T13:07:40.323Z,2.70
2022-10-28T13:10:15.054Z,2.20
2022-10-28T13:13:05.932Z,2.38
2022-10-28T13:15:52.987Z,2.30
2022-10-28T13:18:40.669Z,2.67
2022-10-28T13:21:16.517Z,3.22
2022-10-28T13:23:47.493Z,2.53
2022-10-28T13:26:22.086Z,2.58
2022-10-28T13:28:50.520Z,2.22
2022-10-28T13:31:23.165Z,2.70
2022-10-28T13:33:53.298Z,2.45
2022-10-28T13:36:21.932Z,2.50
2022-10-28T13:38:54.104Z,2.10
2022-10-28T13:41:41.056Z,2.70
2022-10-28T13:44:19.933Z,4.03
2022-10-28T13:47:06.339Z,3.35
2022-10-28T13:49:36.075Z,3.00
2022-10-28T13:52:05.287Z,2.80
2022-10-28T13:54:33.808Z,3.00
2022-10-28T13:57:07.780Z,3.33
2022-10-28T13:59:41.205Z,3.47
2022-10-28T14:02:34.725Z,3.40
2022-10-28T14:05:06.357Z,3.83
2022-10-28T14:07:35.301Z,3.83
2022-10-28T14:10:21.299Z,3.38
2022-10-28T14:12:50.654Z,3.42
2022-10-28T14:15:20.102Z,3.90
2022-10-28T14:17:52.657Z,3.40
2022-10-28T14:20:23.510Z,3.92
2022-10-28T14:22:54.365Z,3.70
2022-10-28T14:25:54.814Z,4.25
2022-10-28T14:28:43.297Z,4.15
2022-10-28T14:31:21.057Z,4.80
2022-10-28T14:34:09.879Z,4.43
2022-10-28T14:36:42.337Z,4.18
2022-10-28T14:39:19.718Z,4.65
2022-10-28T14:41:53.660Z,5.38
2022-10-28T14:44:31.828Z,4.60
2022-10-28T14:47:06.370Z,4.68
2022-10-28T14:49:35.239Z,4.72
2022-10-28T14:52:08.544Z,5.18
2022-10-28T14:54:40.865Z,4.93
2022-10-28T14:57:09.061Z,4.72
2022-10-28T14:59:38.794Z,4.55
2022-10-28T15:02:12.537Z,4.20
2022-10-28T15:04:41.328Z,5.00
2022-10-28T15:07:13.120Z,4.82
2022-10-28T15:09:43.392Z,4.60
2022-10-28T15:12:12.220Z,5.05
2022-10-28T15:14:40.672Z,5.95
2022-10-28T15:17:13.021Z,5.15
2022-10-28T15:19:40.667Z,4.50
2022-10-28T15:22:13.182Z,5.70
2022-10-28T15:24:46.184Z,5.13
2022-10-28T15:27:15.084Z,5.88
2022-10-28T15:29:42.942Z,6.50
2022-10-28T15:32:16.358Z,5.70
2022-10-28T15:34:44.548Z,5.73
2022-10-28T15:37:17.729Z,5.65
2022-10-28T15:39:46.964Z,5.97
2022-10-28T15:42:38.275Z,6.20
2022-10-28T15:45:06.406Z,6.00
2022-10-28T15:47:37.120Z,6.47
2022-10-28T15:50:20.843Z,6.45
2022-10-28T15:52:53.552Z,5.97
2022-10-28T15:55:41.308Z,5.90
2022-10-28T15:58:40.844Z,6.40
2022-10-28T16:01:10.561Z,6.35
2022-10-28T16:03:45.648Z,6.72
2022-10-28T16:06:23.763Z,6.63
2022-10-28T16:09:00.476Z,7.15
2022-10-28T16:11:30.355Z,6.63
2022-10-28T16:13:58.299Z,5.95
2022-10-28T16:16:27.088Z,7.28
2022-10-28T16:19:00.932Z,7.00
2022-10-28T16:21:30.678Z,7.93
2022-10-28T16:24:01.955Z,7.22
2022-10-28T16:26:32.260Z,8.93
2022-10-28T16:28:59.821Z,8.45
2022-10-28T16:31:37.529Z,8.35
2022-10-28T16:34:08.040Z,8.27
2022-10-28T16:36:35.604Z,7.30
2022-10-28T16:39:03.204Z,8.65
2022-10-28T16:41:32.427Z,8.02
2022-10-28T16:44:00.080Z,9.15
2022-10-28T16:46:27.926Z,8.90
2022-10-28T16:48:56.861Z,8.77
2022-10-28T16:51:24.663Z,8.85
2022-10-28T18:54:28.140Z,13.70
2022-10-28T18:56:57.767Z,13.55
2022-10-28T18:59:25.850Z,11.93
2022-10-28T19:01:55.089Z,13.25
2022-10-28T19:04:25.413Z,11.73
2022-10-28T19:06:53.417Z,12.57
2022-10-28T19:09:21.454Z,12.68
2022-10-28T19:11:50.570Z,11.77
2022-10-28T19:14:18.139Z,11.50
2022-10-28T19:16:45.712Z,12.75
2022-10-28T19:19:13.323Z,12.02
2022-10-28T19:21:44.030Z,14.07
2022-10-28T19:24:13.196Z,11.77
2022-10-28T19:26:40.756Z,12.75
2022-10-28T19:29:11.137Z,13.82
2022-10-28T19:31:40.056Z,13.27
2022-10-28T19:34:07.568Z,13.88
2022-10-28T19:36:35.138Z,12.93
2022-10-28T19:39:05.063Z,13.75
2022-10-28T19:41:32.973Z,12.65
2022-10-28T19:44:01.108Z,13.38
2022-10-28T19:46:30.977Z,14.43
2022-10-28T19:49:01.902Z,16.60
2022-10-28T19:51:30.700Z,14.60
2022-10-28T19:53:59.539Z,14.57
2022-10-28T19:56:27.488Z,14.32
2022-10-28T19:58:56.032Z,14.77
2022-10-28T20:01:27.240Z,14.23
2022-10-28T20:03:56.448Z,14.35
2022-10-28T20:06:25.168Z,15.05
2022-10-28T20:08:55.674Z,14.18
2022-10-28T20:11:26.302Z,13.90
2022-10-28T20:13:55.285Z,13.70
2022-10-28T20:16:35.210Z,16.67
2022-10-28T20:19:04.378Z,14.38
2022-10-28T20:21:33.383Z,14.25
2022-10-28T20:24:01.361Z,15.00
2022-10-28T20:26:29.580Z,14.57
2022-10-28T20:28:57.596Z,16.10
2022-10-28T20:31:27.020Z,16.63
2022-10-28T20:33:55.319Z,15.13
2022-10-28T20:36:25.329Z,15.13
2022-10-28T20:38:59.524Z,16.52
2022-10-28T20:41:30.652Z,14.55
2022-10-28T20:43:59.841Z,21.83
2022-10-28T20:46:27.525Z,18.00
2022-10-28T20:49:14.392Z,15.57
2022-10-28T20:51:43.442Z,16.00
2022-10-28T20:54:11.124Z,14.73
2022-10-28T20:56:40.298Z,14.55
2022-10-28T20:59:07.900Z,15.75
2022-10-28T21:01:36.556Z,15.93
2022-10-28T21:04:05.303Z,16.13
2022-10-28T21:06:36.538Z,14.00
2022-10-28T21:09:06.046Z,15.60
2022-10-28T21:11:34.169Z,14.13
2022-10-28T21:14:02.443Z,15.57
2022-10-28T21:16:30.693Z,14.00
2022-10-28T21:18:59.135Z,16.38
2022-10-28T21:21:26.841Z,16.25
2022-10-28T21:23:54.571Z,14.05
2022-10-28T21:26:23.504Z,16.60
2022-10-28T21:28:52.121Z,16.27
2022-10-28T21:31:20.622Z,15.75
2022-10-28T21:36:16.430Z,16.42
2022-10-28T21:38:44.192Z,16.48
2022-10-28T21:41:12.648Z,17.38
2022-10-28T21:43:42.867Z,15.80
2022-10-28T21:46:10.415Z,15.38
2022-10-28T21:48:38.346Z,16.10
2022-10-28T21:51:10.042Z,15.07
2022-10-28T21:53:42.342Z,14.68
2022-10-28T21:56:16.307Z,16.40
2022-10-28T21:58:46.788Z,15.40
2022-10-28T22:01:15.784Z,15.07
2022-10-28T22:03:43.711Z,15.20
2022-10-28T22:06:11.366Z,15.95
2022-10-28T22:08:39.217Z,15.15
2022-10-28T22:11:07.771Z,15.18
2022-10-28T22:13:35.474Z,14.60
2022-10-28T22:16:08.373Z,14.70
2022-10-28T22:18:36.957Z,16.45
2022-10-28T22:21:04.959Z,17.63
2022-10-28T22:23:32.545Z,14.85
2022-10-28T22:26:01.663Z,14.57
2022-10-28T22:28:31.448Z,15.75
2022-10-28T22:30:59.391Z,14.63
2022-10-28T22:33:28.254Z,15.45
2022-10-28T22:35:58.975Z,15.73
2022-10-28T22:38:26.663Z,15.68
2022-10-28T22:41:02.084Z,14.60
2022-10-28T22:43:29.582Z,14.00
2022-10-28T22:45:57.203Z,14.55
2022-10-28T22:48:24.953Z,15.98
2022-10-28T22:50:54.013Z,15.10
2022-10-28T22:53:21.503Z,15.45
2022-10-28T22:55:48.978Z,14.48
2022-10-28T22:58:16.623Z,14.77
2022-10-28T23:00:44.219Z,14.82
2022-10-28T23:03:11.877Z,14.45
2022-10-28T23:05:39.463Z,15.68
2022-10-28T23:08:08.290Z,14.00
2022-10-28T23:10:35.962Z,16.60
2022-10-28T23:13:03.718Z,16.25
2022-10-28T23:15:31.218Z,15.82
2022-10-28T23:17:58.848Z,15.45
2022-10-28T23:20:26.766Z,16.15
2022-10-28T23:22:56.227Z,14.82
2022-10-28T23:25:25.055Z,15.80
2022-10-28T23:27:52.697Z,15.70
2022-10-28T23:30:20.743Z,15.43
2022-10-28T23:32:50.092Z,16.92
2022-10-28T23:35:18.446Z,18.38
2022-10-28T23:37:45.926Z,17.90
2022-10-28T23:40:13.535Z,15.25
2022-10-28T23:42:42.553Z,17.35
2022-10-28T23:45:10.899Z,15.13
2022-10-28T23:47:38.337Z,20.02
2022-10-28T23:50:06.117Z,16.67
2022-10-28T23:52:33.605Z,16.40
2022-10-28T23:55:01.080Z,15.90
2022-10-28T23:57:28.618Z,16.08
2022-10-28T23:59:57.446Z,17.38
